sensor_id;sensor_type;location;lat;lon;timestamp;pressure;altitude;pressure_sealevel;temperature;humidity
76311;BME280;65120;59.304;18.294;2023-05-19T00:00:05;102985.03;;;8.34;56.62
76311;BME280;65120;59.304;18.294;2023-05-19T00:02:32;102991.91;;;8.32;56.43
76311;BME280;65120;59.304;18.294;2023-05-19T00:05:00;102987.41;;;8.25;56.73
76311;BME280;65120;59.304;18.294;2023-05-19T00:07:29;102992.63;;;8.25;56.74
76311;BME280;65120;59.304;18.294;2023-05-19T00:09:58;102996.81;;;8.20;56.55
76311;BME280;65120;59.304;18.294;2023-05-19T00:12:26;103004.56;;;8.19;56.80
76311;BME280;65120;59.304;18.294;2023-05-19T00:14:53;103005.34;;;8.15;56.70
76311;BME280;65120;59.304;18.294;2023-05-19T00:17:21;103010.47;;;8.13;56.68
76311;BME280;65120;59.304;18.294;2023-05-19T00:19:47;103006.88;;;8.08;56.86
76311;BME280;65120;59.304;18.294;2023-05-19T00:22:14;103018.09;;;8.05;57.08
76311;BME280;65120;59.304;18.294;2023-05-19T00:24:41;103010.22;;;8.04;57.27
76311;BME280;65120;59.304;18.294;2023-05-19T00:27:09;103009.28;;;8.00;57.15
76311;BME280;65120;59.304;18.294;2023-05-19T00:29:36;103013.50;;;7.97;57.13
76311;BME280;65120;59.304;18.294;2023-05-19T00:32:04;103015.19;;;7.95;57.36
76311;BME280;65120;59.304;18.294;2023-05-19T00:34:31;103016.78;;;7.89;57.14
76311;BME280;65120;59.304;18.294;2023-05-19T00:36:57;103012.41;;;7.88;57.34
76311;BME280;65120;59.304;18.294;2023-05-19T00:39:24;103022.75;;;7.85;57.63
76311;BME280;65120;59.304;18.294;2023-05-19T00:41:51;103023.53;;;7.83;57.79
76311;BME280;65120;59.304;18.294;2023-05-19T00:44:19;103020.88;;;7.81;57.60
76311;BME280;65120;59.304;18.294;2023-05-19T00:46:46;103016.34;;;7.74;58.03
76311;BME280;65120;59.304;18.294;2023-05-19T00:49:13;103022.44;;;7.75;57.91
76311;BME280;65120;59.304;18.294;2023-05-19T00:51:40;103024.88;;;7.70;57.76
76311;BME280;65120;59.304;18.294;2023-05-19T00:54:07;103024.78;;;7.67;57.90
76311;BME280;65120;59.304;18.294;2023-05-19T00:56:34;103026.44;;;7.65;57.84
76311;BME280;65120;59.304;18.294;2023-05-19T00:59:01;103031.56;;;7.62;57.93
76311;BME280;65120;59.304;18.294;2023-05-19T01:01:30;103028.94;;;7.60;58.34
76311;BME280;65120;59.304;18.294;2023-05-19T01:03:57;103032.34;;;7.59;57.97
76311;BME280;65120;59.304;18.294;2023-05-19T01:06:24;103040.13;;;7.58;58.18
76311;BME280;65120;59.304;18.294;2023-05-19T01:08:53;103033.13;;;7.55;58.33
76311;BME280;65120;59.304;18.294;2023-05-19T01:11:20;103039.97;;;7.53;58.76
76311;BME280;65120;59.304;18.294;2023-05-19T01:13:47;103023.22;;;7.43;58.78
76311;BME280;65120;59.304;18.294;2023-05-19T01:16:20;103028.47;;;7.45;58.75
76311;BME280;65120;59.304;18.294;2023-05-19T01:18:55;103032.69;;;7.41;58.92
76311;BME280;65120;59.304;18.294;2023-05-19T01:24:48;103039.56;;;7.39;58.67
76311;BME280;65120;59.304;18.294;2023-05-19T01:27:40;103039.47;;;7.36;58.70
76311;BME280;65120;59.304;18.294;2023-05-19T01:30:22;103039.38;;;7.33;59.00
76311;BME280;65120;59.304;18.294;2023-05-19T01:32:53;103041.03;;;7.31;59.14
76311;BME280;65120;59.304;18.294;2023-05-19T01:35:22;103041.88;;;7.30;59.31
76311;BME280;65120;59.304;18.294;2023-05-19T01:37:51;103024.19;;;7.18;59.24
76311;BME280;65120;59.304;18.294;2023-05-19T01:40:21;103038.31;;;7.27;59.31
76311;BME280;65120;59.304;18.294;2023-05-19T01:42:50;103046.03;;;7.25;59.42
76311;BME280;65120;59.304;18.294;2023-05-19T01:45:19;103041.59;;;7.21;59.80
76311;BME280;65120;59.304;18.294;2023-05-19T01:47:52;103045.84;;;7.19;59.60
76311;BME280;65120;59.304;18.294;2023-05-19T01:50:19;103035.31;;;7.14;59.79
76311;BME280;65120;59.304;18.294;2023-05-19T01:52:46;103033.53;;;7.13;59.93
76311;BME280;65120;59.304;18.294;2023-05-19T01:55:13;103039.63;;;7.14;60.39
76311;BME280;65120;59.304;18.294;2023-05-19T01:57:46;103039.63;;;7.14;60.40
76311;BME280;65120;59.304;18.294;2023-05-19T02:00:17;103042.19;;;7.12;59.54
76311;BME280;65120;59.304;18.294;2023-05-19T02:02:56;103037.75;;;7.10;60.13
76311;BME280;65120;59.304;18.294;2023-05-19T02:05:35;103039.38;;;7.06;59.88
76311;BME280;65120;59.304;18.294;2023-05-19T02:08:10;103044.53;;;7.05;60.07
76311;BME280;65120;59.304;18.294;2023-05-19T02:10:40;103037.50;;;7.02;60.18
76311;BME280;65120;59.304;18.294;2023-05-19T02:13:10;103037.47;;;7.01;60.32
76311;BME280;65120;59.304;18.294;2023-05-19T02:15:40;103036.44;;;6.95;60.61
76311;BME280;65120;59.304;18.294;2023-05-19T02:18:10;103045.06;;;6.94;60.71
76311;BME280;65120;59.304;18.294;2023-05-19T02:20:38;103040.66;;;6.92;60.65
76311;BME280;65120;59.304;18.294;2023-05-19T02:23:05;103057.13;;;6.92;60.53
76311;BME280;65120;59.304;18.294;2023-05-19T02:25:32;103048.38;;;6.90;60.72
76311;BME280;65120;59.304;18.294;2023-05-19T02:27:59;103048.38;;;6.90;60.86
76311;BME280;65120;59.304;18.294;2023-05-19T02:30:25;103051.81;;;6.89;60.91
76311;BME280;65120;59.304;18.294;2023-05-19T02:32:52;103054.34;;;6.88;61.38
76311;BME280;65120;59.304;18.294;2023-05-19T02:35:21;103054.31;;;6.86;61.08
76311;BME280;65120;59.304;18.294;2023-05-19T02:37:48;103055.97;;;6.84;61.17
76311;BME280;65120;59.304;18.294;2023-05-19T02:40:14;103047.22;;;6.81;61.32
76311;BME280;65120;59.304;18.294;2023-05-19T02:42:41;103055.91;;;6.83;61.55
76311;BME280;65120;59.304;18.294;2023-05-19T02:45:08;103059.34;;;6.82;61.58
76311;BME280;65120;59.304;18.294;2023-05-19T02:47:35;103057.63;;;6.82;61.76
76311;BME280;65120;59.304;18.294;2023-05-19T02:50:03;103057.63;;;6.82;61.64
76311;BME280;65120;59.304;18.294;2023-05-19T02:52:31;103051.56;;;6.82;61.94
76311;BME280;65120;59.304;18.294;2023-05-19T02:54:58;103061.88;;;6.80;61.79
76311;BME280;65120;59.304;18.294;2023-05-19T02:57:25;103067.94;;;6.79;61.76
76311;BME280;65120;59.304;18.294;2023-05-19T02:59:52;103061.78;;;6.77;61.98
76311;BME280;65120;59.304;18.294;2023-05-19T03:02:19;103058.31;;;6.76;62.12
76311;BME280;65120;59.304;18.294;2023-05-19T03:04:46;103059.09;;;6.74;62.18
76311;BME280;65120;59.304;18.294;2023-05-19T03:07:13;103067.81;;;6.76;62.27
76311;BME280;65120;59.304;18.294;2023-05-19T03:09:41;103065.22;;;6.76;62.34
76311;BME280;65120;59.304;18.294;2023-05-19T03:12:08;103052.03;;;6.70;62.35
76311;BME280;65120;59.304;18.294;2023-05-19T03:14:35;103061.78;;;6.77;62.68
76311;BME280;65120;59.304;18.294;2023-05-19T03:17:04;103059.19;;;6.77;62.80
76311;BME280;65120;59.304;18.294;2023-05-19T03:19:32;103060.91;;;6.76;62.69
76311;BME280;65120;59.304;18.294;2023-05-19T03:21:59;103058.38;;;6.78;63.08
76311;BME280;65120;59.304;18.294;2023-05-19T03:24:25;103067.03;;;6.79;63.22
76311;BME280;65120;59.304;18.294;2023-05-19T03:26:54;103064.44;;;6.79;63.43
76311;BME280;65120;59.304;18.294;2023-05-19T03:29:21;103070.63;;;6.82;63.39
76311;BME280;65120;59.304;18.294;2023-05-19T03:31:48;103059.47;;;6.85;63.79
76311;BME280;65120;59.304;18.294;2023-05-19T03:34:16;103071.66;;;6.87;63.97
76311;BME280;65120;59.304;18.294;2023-05-19T03:36:43;103067.34;;;6.88;63.87
76311;BME280;65120;59.304;18.294;2023-05-19T03:39:10;103071.94;;;6.95;64.20
76311;BME280;65120;59.304;18.294;2023-05-19T03:41:37;103064.25;;;6.98;64.43
76311;BME280;65120;59.304;18.294;2023-05-19T03:44:05;103074.75;;;7.03;64.58
76311;BME280;65120;59.304;18.294;2023-05-19T03:46:32;103075.72;;;7.05;64.44
76311;BME280;65120;59.304;18.294;2023-05-19T03:48:59;103074.19;;;7.11;64.82
76311;BME280;65120;59.304;18.294;2023-05-19T03:51:25;103077.81;;;7.16;65.12
76311;BME280;65120;59.304;18.294;2023-05-19T03:53:54;103081.47;;;7.21;65.05
76311;BME280;65120;59.304;18.294;2023-05-19T03:56:21;103077.34;;;7.28;65.20
76311;BME280;65120;59.304;18.294;2023-05-19T03:58:50;103078.38;;;7.33;65.80
76311;BME280;65120;59.304;18.294;2023-05-19T04:01:20;103080.34;;;7.40;65.87
76311;BME280;65120;59.304;18.294;2023-05-19T04:03:47;103082.28;;;7.48;66.21
76311;BME280;65120;59.304;18.294;2023-05-19T04:06:14;103088.59;;;7.56;66.16
76311;BME280;65120;59.304;18.294;2023-05-19T04:08:42;103078.38;;;7.62;66.46
76311;BME280;65120;59.304;18.294;2023-05-19T04:11:09;103080.38;;;7.71;66.33
76311;BME280;65120;59.304;18.294;2023-05-19T04:13:36;103081.50;;;7.79;66.74
76311;BME280;65120;59.304;18.294;2023-05-19T04:16:04;103084.34;;;7.86;66.85
76311;BME280;65120;59.304;18.294;2023-05-19T04:18:32;103081.06;;;7.94;66.77
76311;BME280;65120;59.304;18.294;2023-05-19T04:20:59;103087.47;;;8.05;67.19
76311;BME280;65120;59.304;18.294;2023-05-19T04:23:26;103082.56;;;8.14;67.14
76311;BME280;65120;59.304;18.294;2023-05-19T04:25:52;103082.84;;;8.25;67.00
76311;BME280;65120;59.304;18.294;2023-05-19T04:28:21;103084.03;;;8.36;67.31
76311;BME280;65120;59.304;18.294;2023-05-19T04:30:48;103089.63;;;8.48;67.55
76311;BME280;65120;59.304;18.294;2023-05-19T04:33:15;103085.66;;;8.63;67.17
76311;BME280;65120;59.304;18.294;2023-05-19T04:35:45;103083.38;;;8.76;67.57
76311;BME280;65120;59.304;18.294;2023-05-19T04:38:14;103083.75;;;8.90;66.96
76311;BME280;65120;59.304;18.294;2023-05-19T04:40:43;103094.59;;;9.07;67.24
76311;BME280;65120;59.304;18.294;2023-05-19T04:43:10;103093.22;;;9.21;66.92
76311;BME280;65120;59.304;18.294;2023-05-19T04:45:36;103085.78;;;9.37;66.65
76311;BME280;65120;59.304;18.294;2023-05-19T04:48:06;103082.63;;;9.52;66.28
76311;BME280;65120;59.304;18.294;2023-05-19T04:50:33;103083.94;;;9.71;65.96
76311;BME280;65120;59.304;18.294;2023-05-19T04:53:04;103080.72;;;9.84;65.72
76311;BME280;65120;59.304;18.294;2023-05-19T04:55:31;103083.75;;;10.04;65.31
76311;BME280;65120;59.304;18.294;2023-05-19T04:57:58;103084.16;;;10.22;65.46
76311;BME280;65120;59.304;18.294;2023-05-19T05:00:25;103085.34;;;10.38;65.27
76311;BME280;65120;59.304;18.294;2023-05-19T05:02:52;103078.66;;;10.52;65.03
76311;BME280;65120;59.304;18.294;2023-05-19T05:05:21;103077.22;;;10.70;64.54
76311;BME280;65120;59.304;18.294;2023-05-19T05:07:48;103083.66;;;10.87;63.90
76311;BME280;65120;59.304;18.294;2023-05-19T05:10:19;103072.47;;;10.97;63.42
76311;BME280;65120;59.304;18.294;2023-05-19T05:12:47;103079.81;;;11.20;62.81
76311;BME280;65120;59.304;18.294;2023-05-19T05:15:14;103080.97;;;11.36;62.38
76311;BME280;65120;59.304;18.294;2023-05-19T05:17:41;103083.81;;;11.53;62.24
76311;BME280;65120;59.304;18.294;2023-05-19T05:20:10;103089.28;;;11.68;61.68
76311;BME280;65120;59.304;18.294;2023-05-19T05:22:37;103086.84;;;11.83;61.91
76311;BME280;65120;59.304;18.294;2023-05-19T05:25:06;103078.38;;;11.98;61.15
76311;BME280;65120;59.304;18.294;2023-05-19T05:27:35;103081.97;;;12.09;60.82
76311;BME280;65120;59.304;18.294;2023-05-19T05:30:02;103084.75;;;12.23;60.33
76311;BME280;65120;59.304;18.294;2023-05-19T05:32:29;103088.44;;;12.39;60.28
76311;BME280;65120;59.304;18.294;2023-05-19T05:34:56;103088.56;;;12.50;60.12
76311;BME280;65120;59.304;18.294;2023-05-19T05:37:23;103085.19;;;12.63;60.25
76311;BME280;65120;59.304;18.294;2023-05-19T05:39:50;103092.31;;;12.76;59.89
76311;BME280;65120;59.304;18.294;2023-05-19T05:42:16;103083.69;;;12.87;58.98
76311;BME280;65120;59.304;18.294;2023-05-19T05:44:46;103083.72;;;12.90;58.98
76311;BME280;65120;59.304;18.294;2023-05-19T05:47:13;103096.06;;;13.06;58.54
76311;BME280;65120;59.304;18.294;2023-05-19T05:49:41;103088.28;;;13.15;58.32
76311;BME280;65120;59.304;18.294;2023-05-19T05:52:10;103086.63;;;13.23;57.71
76311;BME280;65120;59.304;18.294;2023-05-19T05:54:38;103091.94;;;13.34;57.16
76311;BME280;65120;59.304;18.294;2023-05-19T05:57:06;103094.63;;;13.42;57.37
76311;BME280;65120;59.304;18.294;2023-05-19T05:59:33;103095.53;;;13.48;57.11
76311;BME280;65120;59.304;18.294;2023-05-19T06:02:01;103092.94;;;13.55;56.46
76311;BME280;65120;59.304;18.294;2023-05-19T06:04:28;103090.38;;;13.61;56.50
76311;BME280;65120;59.304;18.294;2023-05-19T06:06:55;103092.16;;;13.68;55.65
76311;BME280;65120;59.304;18.294;2023-05-19T06:09:25;103095.72;;;13.75;55.08
76311;BME280;65120;59.304;18.294;2023-05-19T06:11:52;103100.09;;;13.80;55.14
76311;BME280;65120;59.304;18.294;2023-05-19T06:14:18;103096.63;;;13.86;54.45
76311;BME280;65120;59.304;18.294;2023-05-19T06:16:45;103100.16;;;13.91;54.10
76311;BME280;65120;59.304;18.294;2023-05-19T06:19:14;103083.53;;;13.90;53.66
76311;BME280;65120;59.304;18.294;2023-05-19T06:21:40;103104.56;;;14.00;54.10
76311;BME280;65120;59.304;18.294;2023-05-19T06:24:08;103107.22;;;14.03;53.68
76311;BME280;65120;59.304;18.294;2023-05-19T06:26:34;103107.25;;;14.07;53.16
76311;BME280;65120;59.304;18.294;2023-05-19T06:29:01;103104.66;;;14.12;52.97
76311;BME280;65120;59.304;18.294;2023-05-19T06:31:28;103109.06;;;14.14;52.97
76311;BME280;65120;59.304;18.294;2023-05-19T06:33:55;103107.28;;;14.20;52.91
76311;BME280;65120;59.304;18.294;2023-05-19T06:36:24;103109.06;;;14.24;52.38
76311;BME280;65120;59.304;18.294;2023-05-19T06:38:51;103117.88;;;14.29;52.02
76311;BME280;65120;59.304;18.294;2023-05-19T06:41:18;103102.06;;;14.24;51.28
76311;BME280;65120;59.304;18.294;2023-05-19T06:43:46;103104.72;;;14.32;51.06
76311;BME280;65120;59.304;18.294;2023-05-19T06:46:12;103113.53;;;14.40;51.42
76311;BME280;65120;59.304;18.294;2023-05-19T06:48:41;103107.38;;;14.41;51.18
76311;BME280;65120;59.304;18.294;2023-05-19T06:51:08;103111.78;;;14.50;50.89
76311;BME280;65120;59.304;18.294;2023-05-19T06:53:37;103114.47;;;14.54;50.51
76311;BME280;65120;59.304;18.294;2023-05-19T06:56:04;103114.47;;;14.67;50.41
76311;BME280;65120;59.304;18.294;2023-05-19T06:58:31;103121.50;;;14.77;50.32
76311;BME280;65120;59.304;18.294;2023-05-19T07:00:58;103115.38;;;14.82;49.75
76311;BME280;65120;59.304;18.294;2023-05-19T07:03:25;103116.28;;;14.89;49.68
76311;BME280;65120;59.304;18.294;2023-05-19T07:05:51;103116.28;;;14.95;49.31
76311;BME280;65120;59.304;18.294;2023-05-19T07:08:18;103100.47;;;14.92;49.07
76311;BME280;65120;59.304;18.294;2023-05-19T07:10:47;103113.63;;;15.11;49.16
76311;BME280;65120;59.304;18.294;2023-05-19T07:13:13;103115.38;;;15.19;48.90
76311;BME280;65120;59.304;18.294;2023-05-19T07:15:40;103111.00;;;15.29;48.66
76311;BME280;65120;59.304;18.294;2023-05-19T07:18:07;103108.34;;;15.41;48.17
76311;BME280;65120;59.304;18.294;2023-05-19T07:20:34;103119.75;;;15.57;48.63
76311;BME280;65120;59.304;18.294;2023-05-19T07:23:01;103110.94;;;15.70;47.54
76311;BME280;65120;59.304;18.294;2023-05-19T07:25:28;103108.31;;;15.80;47.92
76311;BME280;65120;59.304;18.294;2023-05-19T07:27:56;103111.78;;;15.92;47.43
76311;BME280;65120;59.304;18.294;2023-05-19T07:30:25;103109.09;;;16.05;47.13
76311;BME280;65120;59.304;18.294;2023-05-19T07:32:51;103121.31;;;16.21;47.40
76311;BME280;65120;59.304;18.294;2023-05-19T07:35:19;103104.56;;;16.33;46.58
76311;BME280;65120;59.304;18.294;2023-05-19T07:37:46;103123.78;;;16.59;45.55
76311;BME280;65120;59.304;18.294;2023-05-19T07:40:14;103117.50;;;16.73;46.06
76311;BME280;65120;59.304;18.294;2023-05-19T07:42:44;103119.22;;;16.86;45.63
76311;BME280;65120;59.304;18.294;2023-05-19T07:45:12;103121.78;;;16.97;46.19
76311;BME280;65120;59.304;18.294;2023-05-19T07:47:39;103114.66;;;17.06;45.63
76311;BME280;65120;59.304;18.294;2023-05-19T07:50:06;103122.50;;;17.17;44.96
76311;BME280;65120;59.304;18.294;2023-05-19T07:52:33;103112.72;;;17.28;45.45
76311;BME280;65120;59.304;18.294;2023-05-19T07:55:00;103098.53;;;17.36;44.88
76311;BME280;65120;59.304;18.294;2023-05-19T07:57:27;103112.44;;;17.56;44.97
76311;BME280;65120;59.304;18.294;2023-05-19T07:59:54;103120.22;;;17.68;45.04
76311;BME280;65120;59.304;18.294;2023-05-19T08:02:22;103119.25;;;17.80;45.40
76311;BME280;65120;59.304;18.294;2023-05-19T08:04:49;103113.88;;;17.86;44.66
76311;BME280;65120;59.304;18.294;2023-05-19T08:07:17;103113.81;;;17.94;44.94
76311;BME280;65120;59.304;18.294;2023-05-19T08:09:44;103118.97;;;18.03;44.40
76311;BME280;65120;59.304;18.294;2023-05-19T08:12:11;103119.75;;;18.10;44.35
76311;BME280;65120;59.304;18.294;2023-05-19T08:14:38;103113.53;;;18.15;43.91
76311;BME280;65120;59.304;18.294;2023-05-19T08:17:05;103106.44;;;18.19;42.82
76311;BME280;65120;59.304;18.294;2023-05-19T08:19:33;103116.03;;;18.28;42.92
76311;BME280;65120;59.304;18.294;2023-05-19T08:22:00;103109.78;;;18.32;42.78
76311;BME280;65120;59.304;18.294;2023-05-19T08:24:28;103103.63;;;18.33;43.21
76311;BME280;65120;59.304;18.294;2023-05-19T08:26:55;103105.25;;;18.41;41.53
76311;BME280;65120;59.304;18.294;2023-05-19T08:29:21;103112.22;;;18.47;41.39
76311;BME280;65120;59.304;18.294;2023-05-19T08:31:48;103104.25;;;18.50;41.27
76311;BME280;65120;59.304;18.294;2023-05-19T08:34:15;103103.34;;;18.51;41.25
76311;BME280;65120;59.304;18.294;2023-05-19T08:36:43;103106.75;;;18.58;41.56
76311;BME280;65120;59.304;18.294;2023-05-19T08:39:11;103100.59;;;18.57;41.63
76311;BME280;65120;59.304;18.294;2023-05-19T08:41:40;103104.91;;;18.64;40.34
76311;BME280;65120;59.304;18.294;2023-05-19T08:44:07;103097.81;;;18.66;39.93
76311;BME280;65120;59.304;18.294;2023-05-19T08:46:34;103103.03;;;18.70;39.87
76311;BME280;65120;59.304;18.294;2023-05-19T08:49:05;103101.25;;;18.73;40.54
76311;BME280;65120;59.304;18.294;2023-05-19T08:51:38;103102.16;;;18.74;39.76
76311;BME280;65120;59.304;18.294;2023-05-19T08:54:13;103097.63;;;18.80;40.58
76311;BME280;65120;59.304;18.294;2023-05-19T08:56:41;103093.19;;;18.82;39.63
76311;BME280;65120;59.304;18.294;2023-05-19T08:59:09;103098.44;;;18.85;39.64
76311;BME280;65120;59.304;18.294;2023-05-19T09:01:37;103100.16;;;18.88;39.78
76311;BME280;65120;59.304;18.294;2023-05-19T09:04:05;103102.75;;;18.91;40.03
76311;BME280;65120;59.304;18.294;2023-05-19T09:06:32;103093.94;;;18.89;39.12
76311;BME280;65120;59.304;18.294;2023-05-19T09:08:59;103099.13;;;18.98;39.57
76311;BME280;65120;59.304;18.294;2023-05-19T09:11:27;103106.09;;;19.02;39.15
76311;BME280;65120;59.304;18.294;2023-05-19T09:13:54;103103.41;;;19.05;38.85
76311;BME280;65120;59.304;18.294;2023-05-19T09:16:21;103092.75;;;19.08;39.09
76311;BME280;65120;59.304;18.294;2023-05-19T09:18:54;103090.03;;;19.12;38.91
76311;BME280;65120;59.304;18.294;2023-05-19T09:21:26;103095.28;;;19.15;39.17
76311;BME280;65120;59.304;18.294;2023-05-19T09:23:55;103085.56;;;19.15;38.13
76311;BME280;65120;59.304;18.294;2023-05-19T09:26:22;103087.28;;;19.18;37.72
76311;BME280;65120;59.304;18.294;2023-05-19T09:28:50;103091.69;;;19.19;38.08
76311;BME280;65120;59.304;18.294;2023-05-19T09:31:17;103093.44;;;19.20;37.54
76311;BME280;65120;59.304;18.294;2023-05-19T09:33:44;103094.25;;;19.23;36.95
76311;BME280;65120;59.304;18.294;2023-05-19T09:36:11;103089.78;;;19.27;37.25
76311;BME280;65120;59.304;18.294;2023-05-19T09:38:38;103080.00;;;19.29;37.03
76311;BME280;65120;59.304;18.294;2023-05-19T09:41:06;103081.75;;;19.31;36.49
76311;BME280;65120;59.304;18.294;2023-05-19T09:43:34;103083.50;;;19.32;37.11
76311;BME280;65120;59.304;18.294;2023-05-19T09:46:05;103077.28;;;19.33;35.55
76311;BME280;65120;59.304;18.294;2023-05-19T09:48:32;103078.16;;;19.34;36.29
76311;BME280;65120;59.304;18.294;2023-05-19T09:51:01;103084.31;;;19.36;35.47
76311;BME280;65120;59.304;18.294;2023-05-19T09:53:28;103077.25;;;19.35;36.33
76311;BME280;65120;59.304;18.294;2023-05-19T09:55:56;103077.22;;;19.38;35.46
76311;BME280;65120;59.304;18.294;2023-05-19T09:58:23;103085.16;;;19.38;36.05
76311;BME280;65120;59.304;18.294;2023-05-19T10:00:51;103084.25;;;19.39;35.47
76311;BME280;65120;59.304;18.294;2023-05-19T10:03:21;103080.75;;;19.37;34.80
76311;BME280;65120;59.304;18.294;2023-05-19T10:05:49;103077.22;;;19.38;35.53
76311;BME280;65120;59.304;18.294;2023-05-19T10:08:16;103078.97;;;19.39;35.48
76311;BME280;65120;59.304;18.294;2023-05-19T10:10:45;103076.25;;;19.41;35.20
76311;BME280;65120;59.304;18.294;2023-05-19T10:13:12;103081.53;;;19.42;35.07
76311;BME280;65120;59.304;18.294;2023-05-19T10:15:40;103075.44;;;19.39;35.24
76311;BME280;65120;59.304;18.294;2023-05-19T10:18:08;103078.84;;;19.45;36.09
76311;BME280;65120;59.304;18.294;2023-05-19T10:20:36;103070.91;;;19.44;35.28
76311;BME280;65120;59.304;18.294;2023-05-19T10:23:04;103074.38;;;19.47;35.70
76311;BME280;65120;59.304;18.294;2023-05-19T10:25:31;103072.59;;;19.48;35.59
76311;BME280;65120;59.304;18.294;2023-05-19T10:28:02;103069.03;;;19.49;34.88
76311;BME280;65120;59.304;18.294;2023-05-19T10:30:36;103076.16;;;19.47;34.35
76311;BME280;65120;59.304;18.294;2023-05-19T10:33:05;103072.66;;;19.45;33.91
76311;BME280;65120;59.304;18.294;2023-05-19T10:36:08;103069.16;;;19.44;34.54
76311;BME280;65120;59.304;18.294;2023-05-19T10:38:41;103068.28;;;19.42;33.77
76311;BME280;65120;59.304;18.294;2023-05-19T10:41:21;103070.97;;;19.41;33.33
76311;BME280;65120;59.304;18.294;2023-05-19T10:43:57;103069.28;;;19.38;33.89
76311;BME280;65120;59.304;18.294;2023-05-19T10:46:25;103070.22;;;19.34;33.65
76311;BME280;65120;59.304;18.294;2023-05-19T10:48:53;103064.13;;;19.29;32.56
76311;BME280;65120;59.304;18.294;2023-05-19T10:51:27;103066.88;;;19.23;32.69
76311;BME280;65120;59.304;18.294;2023-05-19T10:53:55;103069.59;;;19.20;33.58
76311;BME280;65120;59.304;18.294;2023-05-19T10:56:30;103062.56;;;19.19;33.13
76311;BME280;65120;59.304;18.294;2023-05-19T10:58:58;103069.66;;;19.17;32.99
76311;BME280;65120;59.304;18.294;2023-05-19T11:01:30;103066.19;;;19.13;32.88
76311;BME280;65120;59.304;18.294;2023-05-19T11:04:03;103066.25;;;19.08;32.83
76311;BME280;65120;59.304;18.294;2023-05-19T11:06:33;103068.97;;;19.05;33.21
76311;BME280;65120;59.304;18.294;2023-05-19T11:09:10;103064.63;;;19.01;32.63
76311;BME280;65120;59.304;18.294;2023-05-19T11:11:45;103082.38;;;18.96;32.67
76311;BME280;65120;59.304;18.294;2023-05-19T11:14:14;103075.41;;;18.91;31.92
76311;BME280;65120;59.304;18.294;2023-05-19T11:16:45;103091.34;;;18.86;32.20
76311;BME280;65120;59.304;18.294;2023-05-19T11:19:17;103073.78;;;18.80;31.93
76311;BME280;65120;59.304;18.294;2023-05-19T11:21:49;103082.59;;;18.81;32.64
76311;BME280;65120;59.304;18.294;2023-05-19T11:24:38;103082.66;;;18.78;32.20
76311;BME280;65120;59.304;18.294;2023-05-19T11:27:25;103084.47;;;18.76;31.88
76311;BME280;65120;59.304;18.294;2023-05-19T11:29:54;103077.44;;;18.73;32.16
76311;BME280;65120;59.304;18.294;2023-05-19T11:32:24;103084.50;;;18.71;32.53
76311;BME280;65120;59.304;18.294;2023-05-19T11:34:51;103077.47;;;18.70;31.50
76311;BME280;65120;59.304;18.294;2023-05-19T11:37:21;103085.44;;;18.69;32.06
76311;BME280;65120;59.304;18.294;2023-05-19T11:39:48;103073.16;;;18.64;32.35
76311;BME280;65120;59.304;18.294;2023-05-19T11:42:16;103092.56;;;18.63;31.67
76311;BME280;65120;59.304;18.294;2023-05-19T11:44:43;103092.66;;;18.57;32.20
76311;BME280;65120;59.304;18.294;2023-05-19T11:47:11;103098.91;;;18.52;32.25
76311;BME280;65120;59.304;18.294;2023-05-19T11:49:41;103082.22;;;18.47;31.36
76311;BME280;65120;59.304;18.294;2023-05-19T11:52:08;103090.22;;;18.43;31.42
76311;BME280;65120;59.304;18.294;2023-05-19T11:54:37;103087.66;;;18.39;31.76
76311;BME280;65120;59.304;18.294;2023-05-19T11:57:07;103089.44;;;18.37;31.87
76311;BME280;65120;59.304;18.294;2023-05-19T11:59:35;103090.34;;;18.34;31.66
76311;BME280;65120;59.304;18.294;2023-05-19T12:02:15;103089.47;;;18.34;32.04
76311;BME280;65120;59.304;18.294;2023-05-19T12:04:42;103092.16;;;18.31;31.74
76311;BME280;65120;59.304;18.294;2023-05-19T12:07:10;103085.19;;;18.25;31.10
76311;BME280;65120;59.304;18.294;2023-05-19T12:09:39;103091.41;;;18.23;31.14
76311;BME280;65120;59.304;18.294;2023-05-19T12:12:06;103086.16;;;18.19;31.19
76311;BME280;65120;59.304;18.294;2023-05-19T12:14:34;103091.44;;;18.18;31.55
76311;BME280;65120;59.304;18.294;2023-05-19T12:17:09;103086.19;;;18.16;31.77
76311;BME280;65120;59.304;18.294;2023-05-19T12:19:37;103089.72;;;18.15;31.89
76311;BME280;65120;59.304;18.294;2023-05-19T12:22:05;103090.63;;;18.16;32.12
76311;BME280;65120;59.304;18.294;2023-05-19T12:24:32;103082.69;;;18.16;32.02
76311;BME280;65120;59.304;18.294;2023-05-19T12:27:08;103086.19;;;18.16;32.11
76311;BME280;65120;59.304;18.294;2023-05-19T12:29:36;103085.34;;;18.13;31.41
76311;BME280;65120;59.304;18.294;2023-05-19T12:32:04;103085.34;;;18.13;31.38
76311;BME280;65120;59.304;18.294;2023-05-19T12:34:34;103091.56;;;18.10;30.95
76311;BME280;65120;59.304;18.294;2023-05-19T12:37:01;103065.28;;;17.96;31.10
76311;BME280;65120;59.304;18.294;2023-05-19T12:39:28;103084.56;;;18.06;31.30
76311;BME280;65120;59.304;18.294;2023-05-19T12:42:00;103084.59;;;18.05;31.79
76311;BME280;65120;59.304;18.294;2023-05-19T12:44:28;103085.47;;;18.04;32.11
76311;BME280;65120;59.304;18.294;2023-05-19T12:46:56;103086.34;;;18.04;32.02
76311;BME280;65120;59.304;18.294;2023-05-19T12:49:23;103088.97;;;18.04;32.07
76311;BME280;65120;59.304;18.294;2023-05-19T12:51:51;103089.88;;;18.03;31.59